sensor_id;sensor_type;location;lat;lon;timestamp;temperature;humidity
56300;DHT22;42209;6.376;-10.782;2023-02-28T00:01:32;28.80;46.80
56300;DHT22;42209;6.376;-10.782;2023-02-28T00:04:01;28.80;47.00
56300;DHT22;42209;6.376;-10.782;2023-02-28T00:06:29;28.70;46.70
56300;DHT22;42209;6.376;-10.782;2023-02-28T00:08:57;28.80;46.70
56300;DHT22;42209;6.376;-10.782;2023-02-28T00:11:25;28.80;46.90
56300;DHT22;42209;6.376;-10.782;2023-02-28T00:13:54;28.80;46.50
56300;DHT22;42209;6.376;-10.782;2023-02-28T00:16:22;28.80;46.50
56300;DHT22;42209;6.376;-10.782;2023-02-28T00:18:50;28.80;46.90
56300;DHT22;42209;6.376;-10.782;2023-02-28T00:21:20;28.80;46.50
56300;DHT22;42209;6.376;-10.782;2023-02-28T00:23:49;28.80;46.80
56300;DHT22;42209;6.376;-10.782;2023-02-28T00:26:17;28.80;47.10
56300;DHT22;42209;6.376;-10.782;2023-02-28T00:28:49;28.70;47.10
56300;DHT22;42209;6.376;-10.782;2023-02-28T00:31:17;28.70;47.30
56300;DHT22;42209;6.376;-10.782;2023-02-28T00:33:47;28.80;47.40
56300;DHT22;42209;6.376;-10.782;2023-02-28T00:36:16;28.80;47.50
56300;DHT22;42209;6.376;-10.782;2023-02-28T00:38:44;28.70;47.40
56300;DHT22;42209;6.376;-10.782;2023-02-28T00:41:12;28.70;47.00
56300;DHT22;42209;6.376;-10.782;2023-02-28T00:43:40;28.80;47.40
56300;DHT22;42209;6.376;-10.782;2023-02-28T00:46:10;28.70;47.20
56300;DHT22;42209;6.376;-10.782;2023-02-28T00:48:39;28.80;47.60
56300;DHT22;42209;6.376;-10.782;2023-02-28T00:51:08;28.80;47.90
56300;DHT22;42209;6.376;-10.782;2023-02-28T00:53:36;28.70;47.90
56300;DHT22;42209;6.376;-10.782;2023-02-28T00:56:05;28.70;48.10
56300;DHT22;42209;6.376;-10.782;2023-02-28T00:58:33;28.80;48.10
56300;DHT22;42209;6.376;-10.782;2023-02-28T01:01:01;28.70;47.80
56300;DHT22;42209;6.376;-10.782;2023-02-28T01:03:30;28.80;48.20
56300;DHT22;42209;6.376;-10.782;2023-02-28T01:05:59;28.80;48.30
56300;DHT22;42209;6.376;-10.782;2023-02-28T01:08:27;28.70;48.30
56300;DHT22;42209;6.376;-10.782;2023-02-28T01:10:56;28.70;48.60
56300;DHT22;42209;6.376;-10.782;2023-02-28T01:13:24;28.80;48.40
56300;DHT22;42209;6.376;-10.782;2023-02-28T01:15:55;28.70;48.20
56300;DHT22;42209;6.376;-10.782;2023-02-28T01:18:24;28.70;48.80
56300;DHT22;42209;6.376;-10.782;2023-02-28T01:20:53;28.70;48.60
56300;DHT22;42209;6.376;-10.782;2023-02-28T01:23:22;28.70;48.50
56300;DHT22;42209;6.376;-10.782;2023-02-28T01:25:51;28.80;48.80
56300;DHT22;42209;6.376;-10.782;2023-02-28T01:28:20;28.70;48.80
56300;DHT22;42209;6.376;-10.782;2023-02-28T01:30:50;28.70;48.60
56300;DHT22;42209;6.376;-10.782;2023-02-28T01:33:20;28.80;48.90
56300;DHT22;42209;6.376;-10.782;2023-02-28T01:35:48;28.80;48.70
56300;DHT22;42209;6.376;-10.782;2023-02-28T01:38:16;28.80;48.90
56300;DHT22;42209;6.376;-10.782;2023-02-28T01:40:50;28.70;49.10
56300;DHT22;42209;6.376;-10.782;2023-02-28T01:43:30;28.70;49.10
56300;DHT22;42209;6.376;-10.782;2023-02-28T01:45:59;28.70;49.40
56300;DHT22;42209;6.376;-10.782;2023-02-28T01:48:28;28.80;49.50
56300;DHT22;42209;6.376;-10.782;2023-02-28T01:51:02;28.80;49.50
56300;DHT22;42209;6.376;-10.782;2023-02-28T01:53:38;28.70;49.70
56300;DHT22;42209;6.376;-10.782;2023-02-28T01:56:09;28.70;49.10
56300;DHT22;42209;6.376;-10.782;2023-02-28T01:58:40;28.70;50.10
56300;DHT22;42209;6.376;-10.782;2023-02-28T02:01:08;28.70;49.70
56300;DHT22;42209;6.376;-10.782;2023-02-28T02:03:36;28.70;50.00
56300;DHT22;42209;6.376;-10.782;2023-02-28T02:06:04;28.70;50.80
56300;DHT22;42209;6.376;-10.782;2023-02-28T02:08:34;28.70;50.50
56300;DHT22;42209;6.376;-10.782;2023-02-28T02:11:09;28.70;50.70
56300;DHT22;42209;6.376;-10.782;2023-02-28T02:36:15;28.70;51.00
56300;DHT22;42209;6.376;-10.782;2023-02-28T02:39:08;28.70;51.90
56300;DHT22;42209;6.376;-10.782;2023-02-28T02:41:52;28.60;52.50
56300;DHT22;42209;6.376;-10.782;2023-02-28T02:44:42;28.70;52.50
56300;DHT22;42209;6.376;-10.782;2023-02-28T02:47:15;28.70;52.60
56300;DHT22;42209;6.376;-10.782;2023-02-28T02:49:57;28.70;51.20
56300;DHT22;42209;6.376;-10.782;2023-02-28T02:52:49;28.60;52.20
56300;DHT22;42209;6.376;-10.782;2023-02-28T02:55:20;28.70;52.60
56300;DHT22;42209;6.376;-10.782;2023-02-28T02:58:01;28.70;53.70
56300;DHT22;42209;6.376;-10.782;2023-02-28T03:00:34;28.70;52.70
56300;DHT22;42209;6.376;-10.782;2023-02-28T03:03:05;28.70;53.30
56300;DHT22;42209;6.376;-10.782;2023-02-28T03:05:47;28.70;53.00
56300;DHT22;42209;6.376;-10.782;2023-02-28T03:08:15;28.60;52.80
56300;DHT22;42209;6.376;-10.782;2023-02-28T03:10:48;28.70;52.40
56300;DHT22;42209;6.376;-10.782;2023-02-28T03:13:44;28.60;52.10
56300;DHT22;42209;6.376;-10.782;2023-02-28T03:16:35;28.70;52.60
56300;DHT22;42209;6.376;-10.782;2023-02-28T03:22:11;28.70;52.90
56300;DHT22;42209;6.376;-10.782;2023-02-28T03:30:59;28.70;52.50
56300;DHT22;42209;6.376;-10.782;2023-02-28T03:33:39;28.60;52.50
56300;DHT22;42209;6.376;-10.782;2023-02-28T03:36:16;28.60;53.00
56300;DHT22;42209;6.376;-10.782;2023-02-28T03:38:59;28.60;53.30
56300;DHT22;42209;6.376;-10.782;2023-02-28T03:42:02;28.60;53.50
56300;DHT22;42209;6.376;-10.782;2023-02-28T03:44:44;28.60;54.30
56300;DHT22;42209;6.376;-10.782;2023-02-28T03:56:16;28.60;55.00
56300;DHT22;42209;6.376;-10.782;2023-02-28T03:58:54;28.60;54.40
56300;DHT22;42209;6.376;-10.782;2023-02-28T04:01:37;28.60;54.30
56300;DHT22;42209;6.376;-10.782;2023-02-28T04:04:07;28.60;54.00
56300;DHT22;42209;6.376;-10.782;2023-02-28T04:06:35;28.60;53.40
56300;DHT22;42209;6.376;-10.782;2023-02-28T04:09:06;28.60;54.30
56300;DHT22;42209;6.376;-10.782;2023-02-28T04:11:40;28.60;53.70
56300;DHT22;42209;6.376;-10.782;2023-02-28T04:14:10;28.60;55.20
56300;DHT22;42209;6.376;-10.782;2023-02-28T04:16:41;28.60;55.40
56300;DHT22;42209;6.376;-10.782;2023-02-28T04:19:11;28.60;54.90
56300;DHT22;42209;6.376;-10.782;2023-02-28T04:21:42;28.50;53.20
56300;DHT22;42209;6.376;-10.782;2023-02-28T04:24:13;28.60;54.60
56300;DHT22;42209;6.376;-10.782;2023-02-28T04:26:44;28.60;53.00
56300;DHT22;42209;6.376;-10.782;2023-02-28T04:29:17;28.50;53.50
56300;DHT22;42209;6.376;-10.782;2023-02-28T04:31:46;28.60;53.60
56300;DHT22;42209;6.376;-10.782;2023-02-28T04:34:16;28.60;53.40
56300;DHT22;42209;6.376;-10.782;2023-02-28T04:36:44;28.50;52.60
56300;DHT22;42209;6.376;-10.782;2023-02-28T04:39:12;28.60;53.40
56300;DHT22;42209;6.376;-10.782;2023-02-28T04:41:40;28.60;52.30
56300;DHT22;42209;6.376;-10.782;2023-02-28T04:44:09;28.50;52.70
56300;DHT22;42209;6.376;-10.782;2023-02-28T04:46:37;28.50;52.90
56300;DHT22;42209;6.376;-10.782;2023-02-28T04:49:05;28.50;53.20
56300;DHT22;42209;6.376;-10.782;2023-02-28T04:51:33;28.50;52.80
56300;DHT22;42209;6.376;-10.782;2023-02-28T04:54:01;28.50;52.40
56300;DHT22;42209;6.376;-10.782;2023-02-28T04:56:30;28.50;52.70
56300;DHT22;42209;6.376;-10.782;2023-02-28T04:58:58;28.50;52.10
56300;DHT22;42209;6.376;-10.782;2023-02-28T05:01:31;28.50;52.70
56300;DHT22;42209;6.376;-10.782;2023-02-28T05:04:01;28.50;52.90
56300;DHT22;42209;6.376;-10.782;2023-02-28T05:06:32;28.50;52.70
56300;DHT22;42209;6.376;-10.782;2023-02-28T05:09:00;28.50;52.90
56300;DHT22;42209;6.376;-10.782;2023-02-28T05:11:32;28.50;52.60
56300;DHT22;42209;6.376;-10.782;2023-02-28T05:14:06;28.50;52.70
56300;DHT22;42209;6.376;-10.782;2023-02-28T05:16:34;28.50;52.80
56300;DHT22;42209;6.376;-10.782;2023-02-28T05:19:02;28.50;53.10
56300;DHT22;42209;6.376;-10.782;2023-02-28T05:21:34;28.40;52.80
56300;DHT22;42209;6.376;-10.782;2023-02-28T05:24:04;28.40;52.90
56300;DHT22;42209;6.376;-10.782;2023-02-28T05:26:39;28.40;53.00
56300;DHT22;42209;6.376;-10.782;2023-02-28T05:29:08;28.50;52.70
56300;DHT22;42209;6.376;-10.782;2023-02-28T05:31:37;28.50;52.90
56300;DHT22;42209;6.376;-10.782;2023-02-28T05:34:06;28.40;53.40
56300;DHT22;42209;6.376;-10.782;2023-02-28T05:36:34;28.40;53.60
56300;DHT22;42209;6.376;-10.782;2023-02-28T05:39:06;28.40;53.90
56300;DHT22;42209;6.376;-10.782;2023-02-28T05:41:35;28.40;53.50
56300;DHT22;42209;6.376;-10.782;2023-02-28T05:44:02;28.40;54.00
56300;DHT22;42209;6.376;-10.782;2023-02-28T05:46:30;28.40;53.60
56300;DHT22;42209;6.376;-10.782;2023-02-28T05:48:59;28.40;53.90
56300;DHT22;42209;6.376;-10.782;2023-02-28T05:51:27;28.40;54.30
56300;DHT22;42209;6.376;-10.782;2023-02-28T05:53:58;28.40;54.70
56300;DHT22;42209;6.376;-10.782;2023-02-28T05:56:26;28.40;54.50
56300;DHT22;42209;6.376;-10.782;2023-02-28T05:58:54;28.40;54.40
56300;DHT22;42209;6.376;-10.782;2023-02-28T06:03:53;28.40;54.40
56300;DHT22;42209;6.376;-10.782;2023-02-28T06:06:21;28.40;55.00
56300;DHT22;42209;6.376;-10.782;2023-02-28T06:08:49;28.40;55.00
56300;DHT22;42209;6.376;-10.782;2023-02-28T06:11:17;28.40;55.20
56300;DHT22;42209;6.376;-10.782;2023-02-28T06:13:45;28.40;55.00
56300;DHT22;42209;6.376;-10.782;2023-02-28T06:16:13;28.40;55.20
56300;DHT22;42209;6.376;-10.782;2023-02-28T06:18:41;28.40;54.70
56300;DHT22;42209;6.376;-10.782;2023-02-28T06:21:09;28.40;55.40
56300;DHT22;42209;6.376;-10.782;2023-02-28T06:23:37;28.40;55.50
56300;DHT22;42209;6.376;-10.782;2023-02-28T06:26:05;28.30;55.70
56300;DHT22;42209;6.376;-10.782;2023-02-28T06:28:33;28.40;56.40
56300;DHT22;42209;6.376;-10.782;2023-02-28T06:31:10;28.40;56.30
56300;DHT22;42209;6.376;-10.782;2023-02-28T06:33:39;28.40;55.10
56300;DHT22;42209;6.376;-10.782;2023-02-28T06:36:07;28.40;56.20
56300;DHT22;42209;6.376;-10.782;2023-02-28T06:38:35;28.40;56.60
56300;DHT22;42209;6.376;-10.782;2023-02-28T06:41:04;28.40;56.40
56300;DHT22;42209;6.376;-10.782;2023-02-28T06:43:33;28.30;56.20
56300;DHT22;42209;6.376;-10.782;2023-02-28T06:46:03;28.40;55.80
56300;DHT22;42209;6.376;-10.782;2023-02-28T06:48:31;28.30;55.50
56300;DHT22;42209;6.376;-10.782;2023-02-28T06:51:03;28.40;56.70
56300;DHT22;42209;6.376;-10.782;2023-02-28T06:53:31;28.30;56.00
56300;DHT22;42209;6.376;-10.782;2023-02-28T06:55:59;28.30;56.30
56300;DHT22;42209;6.376;-10.782;2023-02-28T06:58:31;28.30;56.70
56300;DHT22;42209;6.376;-10.782;2023-02-28T07:00:59;28.30;56.70
56300;DHT22;42209;6.376;-10.782;2023-02-28T07:03:26;28.30;56.80
56300;DHT22;42209;6.376;-10.782;2023-02-28T07:05:54;28.30;55.90
56300;DHT22;42209;6.376;-10.782;2023-02-28T07:08:23;28.30;56.00
56300;DHT22;42209;6.376;-10.782;2023-02-28T07:10:52;28.30;56.60
56300;DHT22;42209;6.376;-10.782;2023-02-28T07:13:20;28.30;55.00
56300;DHT22;42209;6.376;-10.782;2023-02-28T07:15:55;28.30;55.90
56300;DHT22;42209;6.376;-10.782;2023-02-28T07:18:23;28.30;55.80
56300;DHT22;42209;6.376;-10.782;2023-02-28T07:20:52;28.30;55.70
56300;DHT22;42209;6.376;-10.782;2023-02-28T07:23:20;28.30;55.40
56300;DHT22;42209;6.376;-10.782;2023-02-28T07:25:49;28.30;55.70
56300;DHT22;42209;6.376;-10.782;2023-02-28T07:28:17;28.30;56.00
56300;DHT22;42209;6.376;-10.782;2023-02-28T07:30:45;28.20;55.90
56300;DHT22;42209;6.376;-10.782;2023-02-28T07:33:13;28.20;56.00
56300;DHT22;42209;6.376;-10.782;2023-02-28T07:35:41;28.30;55.60
56300;DHT22;42209;6.376;-10.782;2023-02-28T07:38:09;28.30;56.40
56300;DHT22;42209;6.376;-10.782;2023-02-28T07:40:37;28.30;55.90
56300;DHT22;42209;6.376;-10.782;2023-02-28T07:43:05;28.30;56.50
56300;DHT22;42209;6.376;-10.782;2023-02-28T07:45:33;28.30;56.50
56300;DHT22;42209;6.376;-10.782;2023-02-28T07:48:01;28.20;57.30
56300;DHT22;42209;6.376;-10.782;2023-02-28T07:50:29;28.30;56.70
56300;DHT22;42209;6.376;-10.782;2023-02-28T07:52:58;28.30;57.20
56300;DHT22;42209;6.376;-10.782;2023-02-28T07:55:26;28.20;56.90
56300;DHT22;42209;6.376;-10.782;2023-02-28T07:57:54;28.20;57.30
56300;DHT22;42209;6.376;-10.782;2023-02-28T08:00:22;28.20;56.40
56300;DHT22;42209;6.376;-10.782;2023-02-28T08:02:50;28.20;57.40
56300;DHT22;42209;6.376;-10.782;2023-02-28T08:05:18;28.20;57.10
56300;DHT22;42209;6.376;-10.782;2023-02-28T08:07:51;28.20;57.80
56300;DHT22;42209;6.376;-10.782;2023-02-28T08:10:19;28.20;57.40
56300;DHT22;42209;6.376;-10.782;2023-02-28T08:12:47;28.20;57.30
56300;DHT22;42209;6.376;-10.782;2023-02-28T08:15:15;28.20;57.50
56300;DHT22;42209;6.376;-10.782;2023-02-28T08:17:43;28.20;57.80
56300;DHT22;42209;6.376;-10.782;2023-02-28T08:20:11;28.20;57.90
56300;DHT22;42209;6.376;-10.782;2023-02-28T08:22:39;28.20;57.60
56300;DHT22;42209;6.376;-10.782;2023-02-28T08:25:10;28.20;57.80
56300;DHT22;42209;6.376;-10.782;2023-02-28T08:27:38;28.20;57.90
56300;DHT22;42209;6.376;-10.782;2023-02-28T08:30:06;28.20;57.50
56300;DHT22;42209;6.376;-10.782;2023-02-28T08:32:34;28.20;57.70
56300;DHT22;42209;6.376;-10.782;2023-02-28T08:35:02;28.20;58.40
56300;DHT22;42209;6.376;-10.782;2023-02-28T08:37:30;28.20;58.20
56300;DHT22;42209;6.376;-10.782;2023-02-28T08:39:58;28.20;57.80
56300;DHT22;42209;6.376;-10.782;2023-02-28T08:42:26;28.20;57.80
56300;DHT22;42209;6.376;-10.782;2023-02-28T08:44:54;28.20;58.20
56300;DHT22;42209;6.376;-10.782;2023-02-28T08:47:22;28.20;58.60
56300;DHT22;42209;6.376;-10.782;2023-02-28T08:49:50;28.20;57.50
56300;DHT22;42209;6.376;-10.782;2023-02-28T08:52:18;28.20;57.90
56300;DHT22;42209;6.376;-10.782;2023-02-28T08:54:46;28.20;57.40
56300;DHT22;42209;6.376;-10.782;2023-02-28T08:57:14;28.20;57.60
56300;DHT22;42209;6.376;-10.782;2023-02-28T08:59:42;28.20;57.20
56300;DHT22;42209;6.376;-10.782;2023-02-28T09:02:14;28.20;56.70
56300;DHT22;42209;6.376;-10.782;2023-02-28T09:04:42;28.20;56.80
56300;DHT22;42209;6.376;-10.782;2023-02-28T09:07:10;28.20;57.00
56300;DHT22;42209;6.376;-10.782;2023-02-28T09:09:38;28.20;56.70
56300;DHT22;42209;6.376;-10.782;2023-02-28T09:12:06;28.20;56.70
56300;DHT22;42209;6.376;-10.782;2023-02-28T09:14:34;28.20;56.80
56300;DHT22;42209;6.376;-10.782;2023-02-28T09:17:02;28.20;56.30
56300;DHT22;42209;6.376;-10.782;2023-02-28T09:19:30;28.10;55.90
56300;DHT22;42209;6.376;-10.782;2023-02-28T09:21:58;28.20;55.70
56300;DHT22;42209;6.376;-10.782;2023-02-28T09:24:26;28.20;56.50
56300;DHT22;42209;6.376;-10.782;2023-02-28T09:26:54;28.20;56.60
56300;DHT22;42209;6.376;-10.782;2023-02-28T09:29:32;28.20;56.60
56300;DHT22;42209;6.376;-10.782;2023-02-28T09:32:00;28.20;55.90
56300;DHT22;42209;6.376;-10.782;2023-02-28T09:34:29;28.20;56.00
56300;DHT22;42209;6.376;-10.782;2023-02-28T09:36:57;28.20;55.90
56300;DHT22;42209;6.376;-10.782;2023-02-28T09:39:25;28.10;55.50
56300;DHT22;42209;6.376;-10.782;2023-02-28T09:41:54;28.20;55.00
56300;DHT22;42209;6.376;-10.782;2023-02-28T09:46:51;28.10;54.50
56300;DHT22;42209;6.376;-10.782;2023-02-28T09:49:25;28.20;54.40
56300;DHT22;42209;6.376;-10.782;2023-02-28T09:54:27;28.10;54.30
56300;DHT22;42209;6.376;-10.782;2023-02-28T09:56:58;28.10;54.30
56300;DHT22;42209;6.376;-10.782;2023-02-28T09:59:37;28.20;54.30
56300;DHT22;42209;6.376;-10.782;2023-02-28T10:07:10;28.20;53.50
56300;DHT22;42209;6.376;-10.782;2023-02-28T10:09:41;28.20;53.70
56300;DHT22;42209;6.376;-10.782;2023-02-28T10:12:09;28.10;53.70
56300;DHT22;42209;6.376;-10.782;2023-02-28T10:14:39;28.20;53.60
56300;DHT22;42209;6.376;-10.782;2023-02-28T10:17:10;28.10;53.30
56300;DHT22;42209;6.376;-10.782;2023-02-28T10:19:43;28.20;53.40
56300;DHT22;42209;6.376;-10.782;2023-02-28T10:22:17;28.20;53.50
56300;DHT22;42209;6.376;-10.782;2023-02-28T10:24:47;28.20;54.20
56300;DHT22;42209;6.376;-10.782;2023-02-28T10:27:17;28.20;54.20
56300;DHT22;42209;6.376;-10.782;2023-02-28T10:29:49;28.20;54.50
56300;DHT22;42209;6.376;-10.782;2023-02-28T10:32:19;28.20;54.20
56300;DHT22;42209;6.376;-10.782;2023-02-28T10:35:10;28.20;54.00
56300;DHT22;42209;6.376;-10.782;2023-02-28T10:37:39;28.20;53.90
56300;DHT22;42209;6.376;-10.782;2023-02-28T10:42:54;28.20;53.30
56300;DHT22;42209;6.376;-10.782;2023-02-28T10:45:23;28.20;53.30
56300;DHT22;42209;6.376;-10.782;2023-02-28T10:48:00;28.20;53.20
56300;DHT22;42209;6.376;-10.782;2023-02-28T10:55:43;28.20;53.00
56300;DHT22;42209;6.376;-10.782;2023-02-28T10:58:20;28.20;52.70
56300;DHT22;42209;6.376;-10.782;2023-02-28T11:00:50;28.20;52.60
56300;DHT22;42209;6.376;-10.782;2023-02-28T11:03:32;28.20;52.70
56300;DHT22;42209;6.376;-10.782;2023-02-28T11:06:07;28.20;52.60
56300;DHT22;42209;6.376;-10.782;2023-02-28T11:08:37;28.20;52.70
56300;DHT22;42209;6.376;-10.782;2023-02-28T11:11:11;28.20;52.60
56300;DHT22;42209;6.376;-10.782;2023-02-28T11:13:39;28.20;52.50
56300;DHT22;42209;6.376;-10.782;2023-02-28T11:16:09;28.20;52.40
56300;DHT22;42209;6.376;-10.782;2023-02-28T11:18:55;28.20;52.40
56300;DHT22;42209;6.376;-10.782;2023-02-28T11:21:27;28.20;52.10
56300;DHT22;42209;6.376;-10.782;2023-02-28T11:24:01;28.20;52.10
56300;DHT22;42209;6.376;-10.782;2023-02-28T11:26:37;28.20;52.00
56300;DHT22;42209;6.376;-10.782;2023-02-28T11:29:17;28.20;52.00
56300;DHT22;42209;6.376;-10.782;2023-02-28T11:34:32;28.20;52.00
56300;DHT22;42209;6.376;-10.782;2023-02-28T11:37:00;28.20;51.90
56300;DHT22;42209;6.376;-10.782;2023-02-28T11:39:28;28.30;52.10
56300;DHT22;42209;6.376;-10.782;2023-02-28T11:42:17;28.20;52.00
56300;DHT22;42209;6.376;-10.782;2023-02-28T11:44:58;28.30;52.00
56300;DHT22;42209;6.376;-10.782;2023-02-28T11:50:08;28.20;51.60
56300;DHT22;42209;6.376;-10.782;2023-02-28T12:05:44;28.30;51.40
56300;DHT22;42209;6.376;-10.782;2023-02-28T12:13:24;28.30;51.50
56300;DHT22;42209;6.376;-10.782;2023-02-28T12:18:59;28.30;51.30
56300;DHT22;42209;6.376;-10.782;2023-02-28T12:26:57;28.30;51.40
56300;DHT22;42209;6.376;-10.782;2023-02-28T12:29:28;28.30;51.40
56300;DHT22;42209;6.376;-10.782;2023-02-28T12:32:12;28.30;51.40
56300;DHT22;42209;6.376;-10.782;2023-02-28T12:34:55;28.40;51.40
56300;DHT22;42209;6.376;-10.782;2023-02-28T12:40:17;28.40;51.20
56300;DHT22;42209;6.376;-10.782;2023-02-28T12:42:53;28.40;51.20
56300;DHT22;42209;6.376;-10.782;2023-02-28T12:45:23;28.30;50.90
56300;DHT22;42209;6.376;-10.782;2023-02-28T12:47:55;28.40;50.70
56300;DHT22;42209;6.376;-10.782;2023-02-28T12:50:25;28.40;50.70
56300;DHT22;42209;6.376;-10.782;2023-02-28T12:55:36;28.40;50.90
56300;DHT22;42209;6.376;-10.782;2023-02-28T12:58:20;28.40;50.70
56300;DHT22;42209;6.376;-10.782;2023-02-28T13:00:55;28.40;50.90
56300;DHT22;42209;6.376;-10.782;2023-02-28T13:06:43;28.40;51.10
56300;DHT22;42209;6.376;-10.782;2023-02-28T13:11:33;28.40;50.80
56300;DHT22;42209;6.376;-10.782;2023-02-28T13:14:14;28.40;51.50
56300;DHT22;42209;6.376;-10.782;2023-02-28T13:16:57;28.40;50.80
56300;DHT22;42209;6.376;-10.782;2023-02-28T13:19:27;28.40;50.80
56300;DHT22;42209;6.376;-10.782;2023-02-28T13:21:55;28.40;50.80
56300;DHT22;42209;6.376;-10.782;2023-02-28T13:34:32;28.50;50.60
56300;DHT22;42209;6.376;-10.782;2023-02-28T13:39:48;28.50;50.40
56300;DHT22;42209;6.376;-10.782;2023-02-28T13:47:31;28.50;50.40
56300;DHT22;42209;6.376;-10.782;2023-02-28T13:55:45;28.50;50.20
56300;DHT22;42209;6.376;-10.782;2023-02-28T14:11:27;28.50;49.70
56300;DHT22;42209;6.376;-10.782;2023-02-28T14:13:55;28.50;49.60
56300;DHT22;42209;6.376;-10.782;2023-02-28T14:16:24;28.60;49.60
56300;DHT22;42209;6.376;-10.782;2023-02-28T14:21:39;28.60;49.70
56300;DHT22;42209;6.376;-10.782;2023-02-28T14:24:16;28.60;49.00
56300;DHT22;42209;6.376;-10.782;2023-02-28T14:32:03;28.60;49.00
56300;DHT22;42209;6.376;-10.782;2023-02-28T14:35:15;28.60;49.10
56300;DHT22;42209;6.376;-10.782;2023-02-28T14:37:33;28.60;49.20
56300;DHT22;42209;6.376;-10.782;2023-02-28T14:40:04;28.70;49.30
56300;DHT22;42209;6.376;-10.782;2023-02-28T14:42:35;28.60;49.30
56300;DHT22;42209;6.376;-10.782;2023-02-28T14:45:04;28.70;49.30
56300;DHT22;42209;6.376;-10.782;2023-02-28T14:47:33;28.60;49.30
56300;DHT22;42209;6.376;-10.782;2023-02-28T14:50:02;28.70;49.30
56300;DHT22;42209;6.376;-10.782;2023-02-28T14:52:31;28.70;49.40
56300;DHT22;42209;6.376;-10.782;2023-02-28T14:55:01;28.70;49.40
56300;DHT22;42209;6.376;-10.782;2023-02-28T14:57:31;28.70;49.30
56300;DHT22;42209;6.376;-10.782;2023-02-28T15:02:30;28.70;49.20
56300;DHT22;42209;6.376;-10.782;2023-02-28T15:05:14;28.70;49.10
56300;DHT22;42209;6.376;-10.782;2023-02-28T15:07:44;28.70;49.20
56300;DHT22;42209;6.376;-10.782;2023-02-28T15:12:50;28.70;49.00
56300;DHT22;42209;6.376;-10.782;2023-02-28T15:15:19;28.70;48.80
56300;DHT22;42209;6.376;-10.782;2023-02-28T15:17:57;28.70;48.70
56300;DHT22;42209;6.376;-10.782;2023-02-28T15:20:27;28.70;48.50
56300;DHT22;42209;6.376;-10.782;2023-02-28T15:22:55;28.80;48.60
56300;DHT22;42209;6.376;-10.782;2023-02-28T15:25:24;28.80;48.60
56300;DHT22;42209;6.376;-10.782;2023-02-28T15:27:53;28.80;48.40
56300;DHT22;42209;6.376;-10.782;2023-02-28T15:30:25;28.80;48.30
56300;DHT22;42209;6.376;-10.782;2023-02-28T15:33:05;28.80;48.20
56300;DHT22;42209;6.376;-10.782;2023-02-28T15:35:33;28.80;48.20
56300;DHT22;42209;6.376;-10.782;2023-02-28T15:40:54;28.80;47.80
56300;DHT22;42209;6.376;-10.782;2023-02-28T15:43:23;28.90;47.90
56300;DHT22;42209;6.376;-10.782;2023-02-28T15:48:23;28.90;47.50
56300;DHT22;42209;6.376;-10.782;2023-02-28T15:50:53;28.90;47.50
56300;DHT22;42209;6.376;-10.782;2023-02-28T15:53:32;28.90;47.50
56300;DHT22;42209;6.376;-10.782;2023-02-28T15:56:02;28.90;47.30
56300;DHT22;42209;6.376;-10.782;2023-02-28T15:58:32;28.90;47.10
56300;DHT22;42209;6.376;-10.782;2023-02-28T16:01:47;28.90;47.00
56300;DHT22;42209;6.376;-10.782;2023-02-28T16:03:50;28.90;47.00
56300;DHT22;42209;6.376;-10.782;2023-02-28T16:08:54;28.90;46.90
56300;DHT22;42209;6.376;-10.782;2023-02-28T16:11:22;29.00;46.70
56300;DHT22;42209;6.376;-10.782;2023-02-28T16:13:50;29.00;46.70
56300;DHT22;42209;6.376;-10.782;2023-02-28T16:16:19;29.00;46.70
56300;DHT22;42209;6.376;-10.782;2023-02-28T16:18:48;29.00;46.70
56300;DHT22;42209;6.376;-10.782;2023-02-28T16:21:17;29.00;46.40
56300;DHT22;42209;6.376;-10.782;2023-02-28T16:23:46;29.00;46.20
56300;DHT22;42209;6.376;-10.782;2023-02-28T16:26:24;29.00;46.40
56300;DHT22;42209;6.376;-10.782;2023-02-28T16:28:52;29.00;46.20
56300;DHT22;42209;6.376;-10.782;2023-02-28T16:31:21;29.00;46.10
56300;DHT22;42209;6.376;-10.782;2023-02-28T16:33:50;29.00;46.20
56300;DHT22;42209;6.376;-10.782;2023-02-28T16:36:20;29.00;46.30
56300;DHT22;42209;6.376;-10.782;2023-02-28T16:38:48;29.10;46.00
56300;DHT22;42209;6.376;-10.782;2023-02-28T16:41:18;29.10;45.90
56300;DHT22;42209;6.376;-10.782;2023-02-28T16:43:47;29.10;45.90
56300;DHT22;42209;6.376;-10.782;2023-02-28T16:46:17;29.10;45.60
56300;DHT22;42209;6.376;-10.782;2023-02-28T16:48:45;29.10;45.60
56300;DHT22;42209;6.376;-10.782;2023-02-28T16:51:14;29.10;45.60
56300;DHT22;42209;6.376;-10.782;2023-02-28T16:53:43;29.10;45.30
56300;DHT22;42209;6.376;-10.782;2023-02-28T16:56:21;29.10;45.20
56300;DHT22;42209;6.376;-10.782;2023-02-28T16:58:50;29.20;45.10
56300;DHT22;42209;6.376;-10.782;2023-02-28T17:01:18;29.10;45.00
56300;DHT22;42209;6.376;-10.782;2023-02-28T17:03:47;29.20;44.90
56300;DHT22;42209;6.376;-10.782;2023-02-28T17:06:16;29.20;45.00
56300;DHT22;42209;6.376;-10.782;2023-02-28T17:08:45;29.20;44.60
56300;DHT22;42209;6.376;-10.782;2023-02-28T17:11:13;29.20;44.70
56300;DHT22;42209;6.376;-10.782;2023-02-28T17:13:41;29.20;44.50
56300;DHT22;42209;6.376;-10.782;2023-02-28T17:16:13;29.20;44.60
56300;DHT22;42209;6.376;-10.782;2023-02-28T17:18:43;29.20;44.40
56300;DHT22;42209;6.376;-10.782;2023-02-28T17:21:14;29.20;44.40
56300;DHT22;42209;6.376;-10.782;2023-02-28T17:23:43;29.30;44.40
56300;DHT22;42209;6.376;-10.782;2023-02-28T17:26:14;29.30;44.60
56300;DHT22;42209;6.376;-10.782;2023-02-28T17:28:43;29.30;44.50
56300;DHT22;42209;6.376;-10.782;2023-02-28T17:31:11;29.30;44.40
56300;DHT22;42209;6.376;-10.782;2023-02-28T17:33:39;29.30;44.30
56300;DHT22;42209;6.376;-10.782;2023-02-28T17:36:13;29.30;44.20
56300;DHT22;42209;6.376;-10.782;2023-02-28T17:38:41;29.30;44.30
56300;DHT22;42209;6.376;-10.782;2023-02-28T17:41:10;29.30;44.00
56300;DHT22;42209;6.376;-10.782;2023-02-28T17:43:38;29.40;44.30
56300;DHT22;42209;6.376;-10.782;2023-02-28T17:46:10;29.30;44.00
56300;DHT22;42209;6.376;-10.782;2023-02-28T17:48:43;29.40;44.10
56300;DHT22;42209;6.376;-10.782;2023-02-28T17:51:14;29.30;43.80
56300;DHT22;42209;6.376;-10.782;2023-02-28T17:53:42;29.40;43.90
56300;DHT22;42209;6.376;-10.782;2023-02-28T17:56:12;29.40;43.90
56300;DHT22;42209;6.376;-10.782;2023-02-28T17:58:40;29.30;43.70
56300;DHT22;42209;6.376;-10.782;2023-02-28T18:01:08;29.40;43.80
56300;DHT22;42209;6.376;-10.782;2023-02-28T18:03:36;29.40;43.60
56300;DHT22;42209;6.376;-10.782;2023-02-28T18:06:04;29.40;43.50
56300;DHT22;42209;6.376;-10.782;2023-02-28T18:08:32;29.40;43.40
56300;DHT22;42209;6.376;-10.782;2023-02-28T18:11:00;29.40;43.40
56300;DHT22;42209;6.376;-10.782;2023-02-28T18:13:28;29.40;43.40
56300;DHT22;42209;6.376;-10.782;2023-02-28T18:30:04;29.30;42.50
56300;DHT22;42209;6.376;-10.782;2023-02-28T18:32:32;29.50;43.50
56300;DHT22;42209;6.376;-10.782;2023-02-28T18:35:03;29.50;43.40